Time;durP1;ratioP1;P1;durP2;ratioP2;P2;SDS_P1;SDS_P2;PMS_P1;PMS_P2;Temp;Humidity;BMP_temperature;BMP_pressure;BME280_temperature;BME280_humidity;BME280_pressure;Samples;Min_cycle;Max_cycle;Signal;HPM_P1;HPM_P2
2022/03/01 00:02:23;;;;;;;14.93;7.50;;;;;;;-4.35;92.23;102795.03;5067100;28;20567;-73
2022/03/01 00:04:49;;;;;;;15.37;7.40;;;;;;;-4.34;95.73;102786.59;5069313;28;20976;-73
2022/03/01 00:07:16;;;;;;;13.13;7.00;;;;;;;-4.39;95.08;102791.41;5070978;28;20466;-73
2022/03/01 00:09:42;;;;;;;13.97;7.33;;;;;;;-4.40;95.66;102787.97;5071118;28;20473;-73
2022/03/01 00:12:09;;;;;;;10.93;6.77;;;;;;;-4.46;95.57;102785.00;5068557;28;20469;-73
2022/03/01 00:14:37;;;;;;;12.13;7.13;;;;;;;-4.45;94.72;102786.78;5067692;28;20544;-73
2022/03/01 00:17:04;;;;;;;13.23;7.50;;;;;;;-4.44;95.34;102788.53;5073528;28;20543;-73
2022/03/01 00:19:31;;;;;;;12.60;6.90;;;;;;;-4.45;97.11;102781.69;5067885;28;20561;-73
2022/03/01 00:21:58;;;;;;;14.93;7.37;;;;;;;-4.49;99.17;102792.41;5076280;28;20943;-73
2022/03/01 00:24:25;;;;;;;10.53;6.60;;;;;;;-4.56;99.18;102785.13;5073095;28;20468;-73
2022/03/01 00:26:51;;;;;;;11.20;6.53;;;;;;;-4.58;99.56;102784.13;5072887;28;20504;-73
2022/03/01 00:29:18;;;;;;;13.97;6.77;;;;;;;-4.56;100.00;102780.03;5072859;28;20573;-73
2022/03/01 00:31:46;;;;;;;14.07;7.00;;;;;;;-4.65;100.00;102775.19;5072186;28;20463;-73
2022/03/01 00:34:12;;;;;;;12.07;6.67;;;;;;;-4.64;100.00;102774.41;5073418;28;20855;-73
2022/03/01 00:36:38;;;;;;;16.10;7.13;;;;;;;-4.58;100.00;102769.72;5076157;28;20457;-73
2022/03/01 00:39:05;;;;;;;11.37;6.90;;;;;;;-4.66;100.00;102772.50;5072559;28;20483;-73
2022/03/01 00:41:32;;;;;;;13.77;6.70;;;;;;;-4.67;100.00;102763.13;5098694;28;20824;-73
2022/03/01 00:43:59;;;;;;;12.27;6.73;;;;;;;-4.69;100.00;102764.69;5074416;28;20955;-73
2022/03/01 00:46:26;;;;;;;11.47;6.77;;;;;;;-4.71;100.00;102767.13;5070104;28;20459;-73
2022/03/01 00:48:55;;;;;;;10.87;6.37;;;;;;;-4.71;100.00;102772.22;5072225;28;20506;-73
2022/03/01 00:51:21;;;;;;;12.63;7.33;;;;;;;-4.76;100.00;102771.00;5070666;28;20448;-73
2022/03/01 00:53:48;;;;;;;14.17;7.53;;;;;;;-4.65;100.00;102772.63;5070241;28;20535;-73
2022/03/01 00:56:15;;;;;;;13.90;7.27;;;;;;;-4.67;100.00;102761.47;5071084;28;20456;-73
2022/03/01 00:58:41;;;;;;;16.93;8.50;;;;;;;-4.65;98.78;102767.53;5072522;28;20472;-73
2022/03/01 01:01:08;;;;;;;13.37;7.47;;;;;;;-4.59;97.05;102772.16;5066585;28;20448;-73
2022/03/01 01:03:34;;;;;;;15.33;7.50;;;;;;;-4.55;96.06;102766.53;5068582;28;20473;-73
2022/03/01 01:06:03;;;;;;;14.13;7.30;;;;;;;-4.53;96.84;102759.88;5071377;28;20441;-73
2022/03/01 01:08:30;;;;;;;12.63;7.70;;;;;;;-4.51;97.23;102760.88;5072517;28;20480;-73
2022/03/01 01:10:56;;;;;;;15.93;7.27;;;;;;;-4.47;95.04;102761.97;5065387;28;20452;-73
2022/03/01 01:13:23;;;;;;;12.83;7.03;;;;;;;-4.47;93.87;102759.41;5070820;28;20457;-73
2022/03/01 01:15:50;;;;;;;14.97;7.50;;;;;;;-4.42;93.62;102766.59;5069110;28;20470;-73
2022/03/01 01:18:16;;;;;;;14.10;7.17;;;;;;;-4.41;94.07;102757.31;5071329;28;20480;-73
2022/03/01 01:20:43;;;;;;;15.17;7.67;;;;;;;-4.37;95.09;102754.19;5061864;28;20467;-73
2022/03/01 01:23:11;;;;;;;17.33;9.57;;;;;;;-4.32;93.54;102751.97;5067861;28;20472;-73
2022/03/01 01:25:37;;;;;;;22.57;12.07;;;;;;;-4.31;92.75;102752.06;5066907;28;20531;-73
2022/03/01 01:28:04;;;;;;;20.77;11.10;;;;;;;-4.32;93.72;102747.75;5068734;28;20473;-73
2022/03/01 01:30:32;;;;;;;12.73;8.30;;;;;;;-4.28;92.77;102749.72;5069460;28;20452;-73
2022/03/01 01:32:59;;;;;;;17.27;8.47;;;;;;;-4.25;92.32;102749.94;5069127;28;20445;-73
2022/03/01 01:35:29;;;;;;;15.63;8.20;;;;;;;-4.26;92.48;102747.28;5070345;28;20547;-73
2022/03/01 01:37:57;;;;;;;16.60;7.37;;;;;;;-4.24;91.03;102761.91;5065758;28;20472;-73
2022/03/01 01:40:26;;;;;;;13.07;7.87;;;;;;;-4.30;91.84;102758.03;5069022;28;20449;-73
2022/03/01 01:42:54;;;;;;;13.80;7.20;;;;;;;-4.31;91.18;102758.81;5064471;28;20464;-73
2022/03/01 01:45:22;;;;;;;15.57;7.67;;;;;;;-4.28;93.67;102757.34;5068649;28;20821;-73
2022/03/01 01:47:51;;;;;;;18.60;7.77;;;;;;;-4.30;93.44;102752.94;5071299;28;20465;-73
2022/03/01 01:50:18;;;;;;;14.67;6.97;;;;;;;-4.33;92.70;102755.28;5070591;28;20462;-73
2022/03/01 01:52:45;;;;;;;12.77;7.53;;;;;;;-4.41;93.03;102755.63;5071112;28;20519;-73
2022/03/01 01:55:12;;;;;;;13.63;7.23;;;;;;;-4.34;95.76;102745.84;5074984;28;20477;-73
2022/03/01 01:57:40;;;;;;;13.77;8.07;;;;;;;-4.35;94.24;102749.19;5071439;28;20460;-73
2022/03/01 02:00:07;;;;;;;16.07;7.73;;;;;;;-4.43;93.53;102746.13;5069967;28;20464;-72
2022/03/01 02:02:40;;;;;;;10.43;6.97;;;;;;;-4.49;92.96;102753.34;5075470;28;20453;-73
2022/03/01 02:05:08;;;;;;;13.03;6.97;;;;;;;-4.48;94.31;102747.47;5076705;28;20452;-74
2022/03/01 02:07:34;;;;;;;13.50;8.00;;;;;;;-4.46;95.76;102739.16;5074598;28;20493;-74
2022/03/01 02:10:01;;;;;;;12.80;7.67;;;;;;;-4.46;94.52;102730.63;5074437;28;20460;-71
2022/03/01 02:12:28;;;;;;;11.90;7.27;;;;;;;-4.50;93.72;102742.28;5072545;28;20456;-73
2022/03/01 02:14:56;;;;;;;13.53;7.40;;;;;;;-4.51;94.94;102753.22;5071923;28;20452;-73
2022/03/01 02:17:23;;;;;;;14.07;7.63;;;;;;;-4.50;95.28;102746.47;5067959;28;20956;-73
2022/03/01 02:19:52;;;;;;;12.60;7.30;;;;;;;-4.50;95.50;102742.28;5069501;28;20505;-73
2022/03/01 02:22:20;;;;;;;13.47;7.50;;;;;;;-4.52;94.53;102740.38;5063638;28;20452;-73
2022/03/01 02:24:47;;;;;;;14.87;7.60;;;;;;;-4.54;95.48;102741.94;5063988;28;20483;-73
2022/03/01 02:27:14;;;;;;;14.83;7.50;;;;;;;-4.54;95.59;102744.50;5068687;28;20452;-73
2022/03/01 02:29:40;;;;;;;13.50;7.77;;;;;;;-4.55;98.58;102732.56;5065048;28;20530;-73
2022/03/01 02:32:09;;;;;;;17.37;7.67;;;;;;;-4.59;99.22;102732.34;5068206;28;20467;-73
2022/03/01 02:34:36;;;;;;;13.40;7.17;;;;;;;-4.61;97.44;102733.00;5062915;28;21031;-73
2022/03/01 02:37:03;;;;;;;12.03;7.27;;;;;;;-4.57;97.47;102732.44;5063683;28;20452;-73
2022/03/01 02:39:31;;;;;;;11.23;7.07;;;;;;;-4.62;95.35;102734.66;5063612;28;20472;-73
2022/03/01 02:41:58;;;;;;;14.40;7.60;;;;;;;-4.61;95.47;102733.00;5063733;28;20457;-73
2022/03/01 02:44:24;;;;;;;13.97;7.80;;;;;;;-4.65;96.03;102737.00;5064869;28;20464;-73
2022/03/01 02:46:50;;;;;;;13.27;7.57;;;;;;;-4.63;95.57;102729.47;5066611;28;20895;-73
2022/03/01 02:49:17;;;;;;;17.53;7.63;;;;;;;-4.63;95.54;102727.78;5062984;28;20995;-73
2022/03/01 02:51:44;;;;;;;12.20;7.57;;;;;;;-4.65;95.47;102733.56;5064127;28;20540;-73
2022/03/01 02:54:10;;;;;;;14.63;8.80;;;;;;;-4.71;95.36;102736.56;5061076;28;20738;-73
2022/03/01 02:56:39;;;;;;;13.47;7.90;;;;;;;-4.71;94.95;102733.13;5063512;28;20460;-73
2022/03/01 02:59:06;;;;;;;13.93;7.67;;;;;;;-4.72;94.61;102726.28;5104634;27;20485;-73
2022/03/01 03:01:32;;;;;;;15.30;8.50;;;;;;;-4.71;95.13;102733.13;5061919;28;20447;-73
2022/03/01 03:03:59;;;;;;;13.60;7.63;;;;;;;-4.71;94.22;102734.03;5067608;28;20560;-73
2022/03/01 03:06:26;;;;;;;13.90;7.13;;;;;;;-4.68;94.46;102729.13;5066991;28;20467;-73
2022/03/01 03:08:53;;;;;;;12.53;7.07;;;;;;;-4.69;95.23;102732.47;5056565;28;20468;-73
2022/03/01 03:11:20;;;;;;;12.23;7.50;;;;;;;-4.68;96.71;102720.63;5066710;28;20553;-73
2022/03/01 03:13:48;;;;;;;14.23;7.80;;;;;;;-4.69;96.38;102724.84;5068168;28;20437;-73
2022/03/01 03:16:14;;;;;;;12.90;8.03;;;;;;;-4.75;95.61;102732.03;5068779;28;20459;-73
2022/03/01 03:18:40;;;;;;;14.80;7.77;;;;;;;-4.78;94.91;102731.84;5072156;28;20484;-73
2022/03/01 03:21:07;;;;;;;13.43;7.93;;;;;;;-4.74;95.31;102722.75;5065043;28;20954;-73
2022/03/01 03:23:33;;;;;;;12.57;7.50;;;;;;;-4.79;94.47;102722.41;5065201;28;20469;-73
2022/03/01 03:26:00;;;;;;;16.03;8.03;;;;;;;-4.78;95.37;102724.19;5069004;28;20444;-73
2022/03/01 03:28:26;;;;;;;13.37;7.43;;;;;;;-4.79;95.50;102728.38;5067639;28;20480;-73
2022/03/01 03:30:54;;;;;;;13.70;8.33;;;;;;;-4.84;95.42;102723.75;5063995;28;20954;-73
2022/03/01 03:33:21;;;;;;;16.33;8.63;;;;;;;-4.81;97.10;102718.88;5061489;28;20449;-73
2022/03/01 03:35:47;;;;;;;12.83;7.37;;;;;;;-4.85;97.88;102711.81;5064728;28;20437;-73
2022/03/01 03:38:14;;;;;;;14.63;7.60;;;;;;;-4.84;98.37;102718.66;5097694;28;20689;-73
2022/03/01 03:40:40;;;;;;;13.17;7.53;;;;;;;-4.87;99.22;102719.34;5065440;28;20483;-73
2022/03/01 03:43:07;;;;;;;12.83;7.50;;;;;;;-4.90;96.44;102724.22;5070913;28;20460;-73
2022/03/01 03:45:33;;;;;;;12.80;7.57;;;;;;;-4.89;96.17;102712.38;5066081;28;20473;-73
2022/03/01 03:48:01;;;;;;;13.70;7.93;;;;;;;-4.92;96.57;102710.50;5073197;28;20482;-73
2022/03/01 03:50:27;;;;;;;15.10;8.70;;;;;;;-4.95;95.16;102716.25;5065085;28;20453;-73
2022/03/01 03:52:54;;;;;;;13.57;7.83;;;;;;;-4.92;96.32;102714.69;5060682;28;20457;-73
2022/03/01 03:55:20;;;;;;;14.43;7.77;;;;;;;-4.97;96.28;102715.25;5063773;28;20445;-73
2022/03/01 03:57:46;;;;;;;16.57;8.37;;;;;;;-4.99;98.65;102714.28;5060617;28;20503;-73
2022/03/01 04:00:16;;;;;;;14.07;7.63;;;;;;;-5.02;96.53;102719.13;5068137;28;20452;-73
2022/03/01 04:02:44;;;;;;;13.83;7.23;;;;;;;-5.05;94.28;102721.44;5068938;28;20440;-73
2022/03/01 04:05:12;;;;;;;12.30;7.37;;;;;;;-5.08;94.51;102720.34;5063669;28;20988;-73
2022/03/01 04:07:39;;;;;;;15.60;7.57;;;;;;;-5.15;95.20;102711.44;5070718;28;20462;-73
2022/03/01 04:10:07;;;;;;;15.80;7.70;;;;;;;-5.17;95.52;102721.50;5070860;28;21139;-73
2022/03/01 04:12:33;;;;;;;14.13;6.87;;;;;;;-5.20;95.49;102723.81;5067171;28;20449;-73
2022/03/01 04:15:00;;;;;;;12.67;7.30;;;;;;;-5.20;96.56;102710.22;5069193;28;20445;-73
2022/03/01 04:17:27;;;;;;;13.80;7.80;;;;;;;-5.17;97.22;102706.22;5061276;28;20543;-73
2022/03/01 04:19:53;;;;;;;16.37;7.50;;;;;;;-5.11;97.09;102707.44;5068100;28;20459;-73
2022/03/01 04:22:21;;;;;;;14.57;7.63;;;;;;;-5.10;99.20;102705.00;5066409;28;20981;-74
2022/03/01 04:24:47;;;;;;;12.53;6.67;;;;;;;-5.16;97.11;102707.09;5073394;28;20486;-73
2022/03/01 04:27:14;;;;;;;12.43;7.27;;;;;;;-5.16;96.60;102707.09;5073816;28;20461;-73
2022/03/01 04:29:40;;;;;;;12.40;7.70;;;;;;;-5.11;96.65;102699.81;5070329;28;20487;-73
2022/03/01 04:32:07;;;;;;;18.13;8.03;;;;;;;-5.07;97.79;102697.56;5068530;28;20452;-74
2022/03/01 04:34:33;;;;;;;11.77;7.27;;;;;;;-5.04;96.83;102689.28;5067822;28;20804;-73
2022/03/01 04:36:59;;;;;;;16.70;8.63;;;;;;;-5.03;97.37;102689.41;5069693;28;20818;-73
2022/03/01 04:39:29;;;;;;;12.73;7.57;;;;;;;-5.03;97.37;102691.94;5069862;28;20475;-73
2022/03/01 04:41:55;;;;;;;16.97;8.00;;;;;;;-5.05;97.79;102695.13;5064277;28;20527;-73
2022/03/01 04:44:22;;;;;;;19.93;8.93;;;;;;;-5.03;97.54;102693.59;5072061;28;20476;-73
2022/03/01 04:46:48;;;;;;;20.73;9.53;;;;;;;-5.06;96.53;102696.81;5069849;28;20448;-73
2022/03/01 04:49:15;;;;;;;18.77;10.13;;;;;;;-5.02;97.76;102693.69;5073308;28;20986;-73
2022/03/01 04:51:41;;;;;;;18.27;9.60;;;;;;;-5.09;97.18;102691.50;5070548;28;20973;-73
2022/03/01 04:54:08;;;;;;;16.03;8.57;;;;;;;-5.12;96.65;102691.28;5067261;28;20445;-73
2022/03/01 04:56:36;;;;;;;19.93;9.17;;;;;;;-5.09;97.92;102703.34;5073368;28;20539;-73
2022/03/01 04:59:02;;;;;;;18.33;9.23;;;;;;;-5.19;97.56;102705.25;5064433;28;20519;-73
2022/03/01 05:01:29;;;;;;;20.90;10.10;;;;;;;-5.20;97.20;102700.91;5069177;28;20465;-73
2022/03/01 05:03:55;;;;;;;14.73;7.90;;;;;;;-5.23;97.14;102700.69;5077983;28;20462;-73
2022/03/01 05:06:22;;;;;;;16.97;9.17;;;;;;;-5.23;98.18;102703.22;5066544;28;20551;-73
2022/03/01 05:08:49;;;;;;;16.07;8.47;;;;;;;-5.33;98.66;102703.34;5064215;28;20906;-73
2022/03/01 05:11:15;;;;;;;17.87;9.73;;;;;;;-5.41;98.79;102705.34;5063730;28;20460;-73
2022/03/01 05:13:43;;;;;;;37.93;15.97;;;;;;;-5.46;99.18;102701.59;5065501;28;20468;-73
2022/03/01 05:16:10;;;;;;;22.33;11.90;;;;;;;-5.48;99.26;102707.34;5066353;28;20457;-73
2022/03/01 05:18:37;;;;;;;20.07;10.57;;;;;;;-5.49;99.82;102696.28;5067506;28;21007;-74
2022/03/01 05:21:04;;;;;;;16.70;8.80;;;;;;;-5.54;99.89;102695.03;5073732;28;20466;-73
2022/03/01 05:23:30;;;;;;;20.23;9.70;;;;;;;-5.53;99.84;102702.78;5059562;28;20843;-73
2022/03/01 05:25:57;;;;;;;21.83;11.43;;;;;;;-5.57;100.00;102695.72;5067305;28;20477;-73
2022/03/01 05:28:23;;;;;;;24.20;12.67;;;;;;;-5.62;100.00;102697.03;5072011;28;20471;-73
2022/03/01 05:30:51;;;;;;;37.80;15.27;;;;;;;-5.64;100.00;102693.50;5073155;28;20467;-73
2022/03/01 05:33:18;;;;;;;28.73;14.40;;;;;;;-5.71;100.00;102701.47;5070365;28;21024;-73
2022/03/01 05:35:44;;;;;;;28.10;13.33;;;;;;;-5.76;100.00;102696.03;5067526;28;20692;-74
2022/03/01 05:38:11;;;;;;;24.73;11.30;;;;;;;-5.83;100.00;102703.97;5063071;28;20480;-73
2022/03/01 05:40:38;;;;;;;17.07;9.33;;;;;;;-5.91;100.00;102693.25;5065672;28;20456;-72
2022/03/01 05:43:06;;;;;;;21.03;9.80;;;;;;;-5.88;100.00;102699.34;5070672;28;20453;-73
2022/03/01 05:45:32;;;;;;;14.33;8.53;;;;;;;-5.96;100.00;102698.78;5083219;28;20479;-72
2022/03/01 05:48:01;;;;;;;17.33;9.00;;;;;;;-5.95;100.00;102701.41;5072930;28;20995;-73
2022/03/01 05:50:27;;;;;;;17.27;8.77;;;;;;;-5.95;100.00;102695.44;5060817;28;20464;-73
2022/03/01 05:52:54;;;;;;;15.40;8.40;;;;;;;-6.03;100.00;102699.09;5076740;28;20545;-73
2022/03/01 05:55:20;;;;;;;15.93;8.13;;;;;;;-6.09;100.00;102700.41;5064338;28;20452;-73
2022/03/01 05:57:47;;;;;;;14.07;8.00;;;;;;;-6.17;100.00;102705.72;5066412;28;21056;-73
2022/03/01 06:00:16;;;;;;;12.53;7.67;;;;;;;-6.09;100.00;102712.25;5071051;28;21187;-72
2022/03/01 06:02:43;;;;;;;14.17;8.33;;;;;;;-6.09;100.00;102702.94;5082008;28;20464;-73
2022/03/01 06:05:12;;;;;;;19.70;9.50;;;;;;;-6.20;100.00;102708.91;5066091;28;20475;-73
2022/03/01 06:07:39;;;;;;;18.57;9.40;;;;;;;-6.27;100.00;102706.66;5067101;28;20471;-73
2022/03/01 06:10:06;;;;;;;15.80;8.67;;;;;;;-6.34;100.00;102706.97;5064112;28;20551;-73
2022/03/01 06:12:33;;;;;;;19.27;9.03;;;;;;;-6.09;100.00;102705.50;5067364;28;21146;-73
2022/03/01 06:15:00;;;;;;;21.47;8.97;;;;;;;-6.06;100.00;102704.84;5100672;28;20455;-73
2022/03/01 06:17:26;;;;;;;17.17;8.87;;;;;;;-6.11;100.00;102706.16;5066544;28;20459;-73
2022/03/01 06:19:53;;;;;;;16.43;8.37;;;;;;;-6.24;100.00;102698.38;5095243;28;20464;-73
2022/03/01 06:22:21;;;;;;;14.63;8.13;;;;;;;-6.09;100.00;102697.88;5084531;28;20464;-73
2022/03/01 06:24:48;;;;;;;15.07;9.33;;;;;;;-6.01;100.00;102695.91;5068702;28;20481;-73
2022/03/01 06:27:15;;;;;;;13.93;8.57;;;;;;;-6.17;100.00;102701.50;5070675;28;20979;-73
2022/03/01 06:29:41;;;;;;;19.00;9.10;;;;;;;-6.15;100.00;102704.19;5102815;27;20835;-73
2022/03/01 06:32:08;;;;;;;16.90;9.10;;;;;;;-6.20;100.00;102698.75;5071990;28;20482;-72
2022/03/01 06:34:35;;;;;;;16.83;9.57;;;;;;;-6.22;100.00;102705.34;5071439;28;20452;-73
2022/03/01 06:37:01;;;;;;;16.33;9.30;;;;;;;-6.11;100.00;102699.41;5069436;28;20461;-73
2022/03/01 06:39:32;;;;;;;19.83;9.60;;;;;;;-6.05;100.00;102688.84;5070927;28;21315;-73
2022/03/01 06:41:59;;;;;;;17.00;8.90;;;;;;;-6.10;100.00;102693.59;5063982;28;20460;-73
2022/03/01 06:44:25;;;;;;;18.73;11.07;;;;;;;-5.92;100.00;102693.16;5064004;28;20488;-73
2022/03/01 06:46:52;;;;;;;15.93;9.53;;;;;;;-5.87;100.00;102689.28;5069641;28;20464;-73
2022/03/01 06:49:18;;;;;;;15.33;10.00;;;;;;;-5.87;100.00;102689.28;5073155;28;20479;-74
2022/03/01 06:51:44;;;;;;;18.47;9.87;;;;;;;-5.79;100.00;102689.84;5072030;28;20456;-73
2022/03/01 06:54:11;;;;;;;19.67;10.70;;;;;;;-5.78;100.00;102689.97;5083531;28;20448;-73
2022/03/01 06:56:38;;;;;;;17.80;10.43;;;;;;;-5.58;100.00;102695.63;5073532;28;20934;-73
2022/03/01 06:59:05;;;;;;;22.23;11.43;;;;;;;-5.47;100.00;102682.03;5066313;28;20907;-73
2022/03/01 07:01:31;;;;;;;26.60;12.70;;;;;;;-5.47;100.00;102692.22;5064651;28;20455;-73
2022/03/01 07:03:58;;;;;;;22.53;12.87;;;;;;;-5.51;100.00;102687.66;5068784;28;20457;-73
2022/03/01 07:06:24;;;;;;;27.40;13.63;;;;;;;-5.33;100.00;102689.00;5063677;28;20492;-73
2022/03/01 07:08:50;;;;;;;23.57;13.70;;;;;;;-5.32;100.00;102689.88;5070366;28;20571;-73
2022/03/01 07:11:17;;;;;;;23.50;13.33;;;;;;;-5.17;100.00;102688.41;5099697;28;20468;-73
2022/03/01 07:13:44;;;;;;;21.57;12.60;;;;;;;-5.13;100.00;102686.97;5067842;28;20456;-73
2022/03/01 07:16:11;;;;;;;31.10;13.67;;;;;;;-5.11;100.00;102692.19;5072028;28;21239;-73
2022/03/01 07:18:37;;;;;;;24.67;13.80;;;;;;;-5.08;100.00;102687.28;5077526;28;20472;-74
2022/03/01 07:21:04;;;;;;;23.50;13.73;;;;;;;-5.07;100.00;102678.88;5073544;28;20453;-72
2022/03/01 07:23:30;;;;;;;24.40;14.70;;;;;;;-4.99;100.00;102677.78;5072330;28;20983;-73
2022/03/01 07:25:57;;;;;;;24.87;15.00;;;;;;;-4.92;100.00;102674.88;5070219;28;20488;-72
2022/03/01 07:28:23;;;;;;;23.13;13.40;;;;;;;-4.86;100.00;102679.50;5072501;28;20480;-73
2022/03/01 07:30:51;;;;;;;25.10;14.13;;;;;;;-4.71;100.00;102678.03;5074124;28;20448;-73
2022/03/01 07:33:17;;;;;;;28.40;14.27;;;;;;;-4.68;100.00;102687.53;5070329;28;20456;-72
2022/03/01 07:35:43;;;;;;;20.67;11.87;;;;;;;-4.59;100.00;102688.16;5072776;28;20455;-73
2022/03/01 07:38:10;;;;;;;22.57;12.97;;;;;;;-4.55;100.00;102689.28;5073586;28;20482;-73
2022/03/01 07:40:36;;;;;;;23.10;13.00;;;;;;;-4.48;100.00;102686.38;5070618;28;20477;-73
2022/03/01 07:43:03;;;;;;;19.80;10.97;;;;;;;-4.37;100.00;102700.69;5069859;28;21014;-73
2022/03/01 07:45:30;;;;;;;21.63;11.37;;;;;;;-4.24;100.00;102690.56;5071497;28;21016;-71
2022/03/01 07:47:58;;;;;;;23.43;12.60;;;;;;;-4.21;100.00;102694.97;5067749;28;20480;-72
2022/03/01 07:50:24;;;;;;;21.23;11.73;;;;;;;-4.10;100.00;102691.47;5064556;28;21071;-73
2022/03/01 07:52:51;;;;;;;19.33;10.67;;;;;;;-4.07;100.00;102693.34;5059896;28;20454;-73
2022/03/01 07:55:19;;;;;;;24.37;11.10;;;;;;;-4.02;100.00;102697.09;5063115;28;20451;-73
2022/03/01 07:57:45;;;;;;;16.90;9.77;;;;;;;-3.93;99.11;102695.16;5068804;28;20829;-72
2022/03/01 08:00:13;;;;;;;19.93;9.63;;;;;;;-3.87;97.62;102699.75;5071130;28;20454;-73
2022/03/01 08:02:40;;;;;;;18.93;10.47;;;;;;;-3.74;100.00;102692.13;5075361;28;20456;-73
2022/03/01 08:05:09;;;;;;;15.23;9.47;;;;;;;-3.66;97.86;102685.88;5075412;28;20480;-72
2022/03/01 08:07:36;;;;;;;16.83;9.40;;;;;;;-3.59;97.45;102686.25;5079166;28;20458;-72
2022/03/01 08:10:03;;;;;;;18.90;10.67;;;;;;;-3.49;97.80;102686.06;5080825;28;20840;-73
2022/03/01 08:12:30;;;;;;;17.87;9.50;;;;;;;-3.36;96.09;102690.28;5076519;28;20939;-73
2022/03/01 08:14:57;;;;;;;19.73;10.83;;;;;;;-3.31;95.14;102688.91;5073062;28;20472;-73
2022/03/01 08:17:23;;;;;;;21.17;10.17;;;;;;;-3.23;93.52;102692.84;5064132;28;20453;-73
2022/03/01 08:19:50;;;;;;;22.63;12.13;;;;;;;-3.14;94.50;102685.75;5067955;28;20484;-73
2022/03/01 08:22:17;;;;;;;17.60;10.00;;;;;;;-3.03;93.47;102688.97;5068058;28;20458;-73
2022/03/01 08:24:44;;;;;;;19.10;9.73;;;;;;;-2.95;93.65;102694.59;5069595;28;20446;-73
2022/03/01 08:27:10;;;;;;;17.23;10.63;;;;;;;-2.89;91.87;102688.16;5069163;28;20466;-73
2022/03/01 08:29:36;;;;;;;16.03;9.47;;;;;;;-2.79;90.84;102694.72;5064595;28;20476;-73
2022/03/01 08:32:03;;;;;;;17.60;9.23;;;;;;;-2.60;88.30;102696.75;5066300;28;20458;-73
2022/03/01 08:34:30;;;;;;;16.97;8.93;;;;;;;-2.52;86.82;102690.41;5070014;28;20467;-73
2022/03/01 08:36:56;;;;;;;17.33;9.17;;;;;;;-2.37;86.49;102694.69;5073179;28;20460;-73
2022/03/01 08:39:24;;;;;;;18.73;9.80;;;;;;;-2.33;85.77;102696.63;5075724;28;20610;-73
2022/03/01 08:41:54;;;;;;;16.03;8.90;;;;;;;-2.30;86.52;102686.59;5068711;28;20452;-73
2022/03/01 08:44:20;;;;;;;16.60;9.13;;;;;;;-2.15;86.01;102689.16;5066385;28;20463;-73
2022/03/01 08:46:46;;;;;;;18.33;8.80;;;;;;;-2.07;86.30;102695.63;5067804;28;20481;-74
2022/03/01 08:49:13;;;;;;;16.63;8.93;;;;;;;-1.95;84.64;102696.34;5068142;28;20227;-73
2022/03/01 08:51:39;;;;;;;17.67;8.73;;;;;;;-1.86;82.94;102700.25;5102029;27;20456;-72
2022/03/01 08:54:06;;;;;;;16.33;9.53;;;;;;;-1.69;82.29;102690.97;5069673;28;20464;-73
2022/03/01 08:56:33;;;;;;;16.17;9.20;;;;;;;-1.60;81.05;102689.81;5073836;28;20467;-73
2022/03/01 08:59:00;;;;;;;18.27;8.97;;;;;;;-1.57;83.79;102684.84;5067286;28;20241;-72
2022/03/01 09:01:26;;;;;;;18.30;8.23;;;;;;;-1.48;82.24;102684.47;5071368;28;20207;-73
2022/03/01 09:03:53;;;;;;;16.10;8.60;;;;;;;-1.38;79.95;102684.22;5067272;28;20202;-73
2022/03/01 09:06:20;;;;;;;13.67;7.90;;;;;;;-1.19;77.38;102687.81;5068563;28;20217;-73
2022/03/01 09:08:47;;;;;;;13.10;7.43;;;;;;;-1.17;78.76;102684.50;5074069;28;20233;-73
2022/03/01 09:11:13;;;;;;;16.20;8.27;;;;;;;-1.15;78.06;102676.91;5065536;28;20199;-73
2022/03/01 09:13:41;;;;;;;15.00;7.60;;;;;;;-1.00;76.58;102684.56;5067700;28;20554;-73
2022/03/01 09:16:09;;;;;;;16.17;8.07;;;;;;;-0.88;74.97;102680.09;5065268;28;20258;-71
2022/03/01 09:18:36;;;;;;;19.20;9.70;;;;;;;-0.78;74.07;102676.34;5078324;28;20740;-73
2022/03/01 09:21:03;;;;;;;14.57;7.93;;;;;;;-0.69;73.32;102674.25;5074839;28;20210;-73
2022/03/01 09:23:31;;;;;;;22.90;10.00;;;;;;;-0.49;73.97;102670.19;5073508;28;20199;-72
2022/03/01 09:25:57;;;;;;;11.90;7.50;;;;;;;-0.31;71.42;102671.94;5075079;28;20232;-74
2022/03/01 09:28:24;;;;;;;14.20;7.00;;;;;;;-0.13;71.71;102662.59;5072532;28;20724;-72
2022/03/01 09:30:52;;;;;;;13.33;6.80;;;;;;;-0.06;71.73;102664.69;5075602;28;20596;-74
2022/03/01 09:33:18;;;;;;;12.67;6.73;;;;;;;0.11;70.78;102659.53;5070313;28;20753;-74
2022/03/01 09:35:46;;;;;;;10.87;6.30;;;;;;;0.11;71.14;102655.25;5068098;28;20211;-73
2022/03/01 09:38:13;;;;;;;11.90;6.30;;;;;;;0.21;70.81;102654.00;5063872;28;20257;-72
2022/03/01 09:40:39;;;;;;;11.07;6.30;;;;;;;0.24;70.61;102655.88;5070583;28;20222;-73
2022/03/01 09:43:06;;;;;;;9.53;6.00;;;;;;;0.39;69.23;102656.63;5074358;28;20205;-74
2022/03/01 09:45:32;;;;;;;11.97;6.53;;;;;;;0.47;70.30;102650.13;5070306;28;20225;-73
2022/03/01 09:48:00;;;;;;;13.80;7.23;;;;;;;0.69;67.78;102658.88;5072255;28;20776;-74
2022/03/01 09:50:29;;;;;;;13.50;7.37;;;;;;;0.87;68.58;102654.56;5065589;28;20610;-73
2022/03/01 09:52:56;;;;;;;14.13;7.57;;;;;;;0.90;65.88;102649.59;5064644;28;20190;-74
2022/03/01 09:55:23;;;;;;;15.07;6.83;;;;;;;1.02;65.22;102651.84;5063779;28;20201;-73
2022/03/01 09:57:50;;;;;;;11.60;6.27;;;;;;;1.10;62.57;102657.31;5093687;27;20215;-73
2022/03/01 10:00:17;;;;;;;12.80;6.23;;;;;;;1.19;63.16;102642.31;5070659;28;20199;-73
2022/03/01 10:02:45;;;;;;;11.40;6.20;;;;;;;1.29;61.46;102648.75;5065732;28;20222;-73
2022/03/01 10:05:14;;;;;;;11.17;5.60;;;;;;;1.39;61.43;102642.31;5070361;28;20222;-73
2022/03/01 10:07:43;;;;;;;9.67;5.93;;;;;;;1.48;62.88;102638.47;5082737;28;20222;-73
2022/03/01 10:10:16;;;;;;;11.17;5.63;;;;;;;1.57;61.63;102643.13;5062801;28;20229;-73
2022/03/01 10:12:43;;;;;;;9.07;5.53;;;;;;;1.59;61.06;102635.47;5067120;28;20211;-73
2022/03/01 10:15:10;;;;;;;13.87;6.13;;;;;;;1.66;60.69;102633.22;5063625;28;20290;-73
2022/03/01 10:17:40;;;;;;;10.43;5.93;;;;;;;1.79;59.17;102637.19;5069049;28;20545;-73
2022/03/01 10:20:09;;;;;;;11.50;6.00;;;;;;;1.92;57.54;102643.75;5069681;28;20202;-73
2022/03/01 10:22:44;;;;;;;10.47;6.60;;;;;;;1.95;57.86;102633.56;5098143;28;20557;-73
2022/03/01 10:25:10;;;;;;;11.97;6.73;;;;;;;2.04;58.92;102630.50;5063654;28;20200;-73
2022/03/01 10:27:36;;;;;;;13.20;7.03;;;;;;;2.18;58.65;102628.47;5066527;28;20222;-73
2022/03/01 10:30:04;;;;;;;8.13;5.90;;;;;;;2.22;59.09;102617.50;5065539;28;20202;-74
2022/03/01 10:32:30;;;;;;;12.23;6.17;;;;;;;2.23;57.89;102621.81;5060051;28;20708;-73
2022/03/01 10:34:59;;;;;;;11.83;5.63;;;;;;;2.39;54.78;102621.63;5073796;28;20201;-73
2022/03/01 10:37:27;;;;;;;11.33;5.47;;;;;;;2.39;54.86;102616.50;5066576;28;20653;-73
2022/03/01 10:40:10;;;;;;;9.40;6.00;;;;;;;2.55;57.16;102604.19;5066230;28;20197;-73
2022/03/01 10:42:36;;;;;;;12.23;7.50;;;;;;;2.61;56.02;102612.16;5069766;28;20214;-73
2022/03/01 10:45:03;;;;;;;18.80;10.37;;;;;;;2.62;54.36;102601.03;5064016;28;20206;-73
2022/03/01 10:47:32;;;;;;;10.63;6.10;;;;;;;2.67;52.27;102609.81;5063863;28;20250;-73
2022/03/01 10:50:01;;;;;;;10.43;6.33;;;;;;;2.74;53.00;102598.03;5072563;28;20225;-73
2022/03/01 10:52:33;;;;;;;11.27;6.13;;;;;;;3.05;52.61;102600.06;5066907;28;20665;-73
2022/03/01 10:55:00;;;;;;;6.87;5.23;;;;;;;3.06;52.53;102594.09;5068914;28;20268;-73
2022/03/01 10:57:27;;;;;;;11.93;6.60;;;;;;;3.18;51.63;102594.53;5060739;28;20691;-73
2022/03/01 10:59:54;;;;;;;13.70;6.77;;;;;;;3.21;52.07;102583.44;5070433;28;20280;-73
2022/03/01 11:02:21;;;;;;;9.20;4.90;;;;;;;3.18;51.86;102584.22;5101040;27;20199;-73
2022/03/01 11:04:49;;;;;;;8.43;5.27;;;;;;;3.12;51.05;102583.13;5068216;28;20210;-73
2022/03/01 11:07:16;;;;;;;9.37;5.20;;;;;;;3.15;50.15;102584.09;5078296;28;20230;-74
2022/03/01 11:09:44;;;;;;;11.53;6.03;;;;;;;3.17;51.51;102572.16;5066497;28;20233;-73
2022/03/01 11:12:15;;;;;;;9.60;4.87;;;;;;;3.19;53.23;102562.75;5062204;28;20202;-73
2022/03/01 11:14:56;;;;;;;13.73;7.90;;;;;;;3.22;50.35;102569.75;5066433;28;20234;-73